createdAt,value
2023-02-08T01:32:29.110Z,-9.08
2023-02-08T01:35:30.703Z,-8.91
2023-02-08T01:38:34.700Z,-8.88
2023-02-08T01:41:38.724Z,-8.89
2023-02-08T01:45:17.685Z,-8.93
2023-02-08T01:48:43.692Z,-9.00
2023-02-08T01:51:47.724Z,-9.05
2023-02-08T01:54:53.741Z,-9.07
2023-02-08T01:57:55.758Z,-9.07
2023-02-08T02:01:02.761Z,-9.08
2023-02-08T02:04:07.217Z,-9.09
2023-02-08T02:07:10.763Z,-9.10
2023-02-08T02:10:17.710Z,-9.12
2023-02-08T02:13:27.763Z,-9.18
2023-02-08T02:16:29.781Z,-9.19
2023-02-08T02:19:38.813Z,-9.16
2023-02-08T02:22:46.817Z,-9.10
2023-02-08T02:26:01.014Z,-9.05
2023-02-08T02:29:18.768Z,-9.08
2023-02-08T02:32:46.787Z,-9.22
2023-02-08T02:36:11.831Z,-9.26
2023-02-08T02:39:35.774Z,-9.24
2023-02-08T02:43:20.928Z,-9.20
2023-02-08T02:46:49.728Z,-9.14
2023-02-08T02:50:05.857Z,-9.13
2023-02-08T02:53:12.837Z,-9.21
2023-02-08T02:56:19.891Z,-9.26
2023-02-08T02:59:28.811Z,-9.32
2023-02-08T03:02:30.846Z,-9.39
2023-02-08T03:05:35.858Z,-9.43
2023-02-08T03:08:58.829Z,-9.42
2023-02-08T03:12:08.820Z,-9.48
2023-02-08T03:15:35.958Z,-9.50
2023-02-08T03:19:02.850Z,-9.48
2023-02-08T03:22:10.883Z,-9.48
2023-02-08T03:25:21.847Z,-9.49
2023-02-08T03:28:41.845Z,-9.53
2023-02-08T03:31:48.985Z,-9.56
2023-02-08T03:35:26.891Z,-9.58
2023-02-08T03:38:35.868Z,-9.61
2023-02-08T03:41:43.936Z,-9.67
2023-02-08T03:44:52.996Z,-9.73
2023-02-08T03:47:55.005Z,-9.80
2023-02-08T03:51:02.957Z,-9.87
2023-02-08T03:54:04.944Z,-9.87
2023-02-08T03:57:14.926Z,-9.85
2023-02-08T04:00:24.911Z,-9.81
2023-02-08T04:03:34.953Z,-9.79
2023-02-08T04:06:36.959Z,-9.82
2023-02-08T04:09:39.950Z,-9.85
2023-02-08T04:12:42.104Z,-9.89
2023-02-08T04:15:43.987Z,-9.91
2023-02-08T04:18:46.022Z,-9.97
2023-02-08T04:21:49.009Z,-10.01
2023-02-08T04:24:52.982Z,-10.03
2023-02-08T04:27:54.994Z,-10.00
2023-02-08T04:30:57.126Z,-9.99
2023-02-08T04:33:59.970Z,-9.99
2023-02-08T04:37:04.005Z,-9.95
2023-02-08T04:40:05.971Z,-9.92
2023-02-08T04:43:00.997Z,-9.89
2023-02-08T04:45:43.084Z,-9.87
2023-02-08T04:48:33.020Z,-9.89
2023-02-08T04:51:21.001Z,-9.91
2023-02-08T04:54:16.157Z,-9.89
2023-02-08T04:57:19.209Z,-9.88
2023-02-08T05:00:26.144Z,-9.88
2023-02-08T05:03:29.066Z,-9.89
2023-02-08T05:06:31.988Z,-9.90
2023-02-08T05:09:34.441Z,-9.89
2023-02-08T05:12:39.070Z,-9.89
2023-02-08T05:15:42.526Z,-9.92
2023-02-08T05:18:46.063Z,-9.93
2023-02-08T05:21:48.093Z,-9.94
2023-02-08T05:24:51.057Z,-9.97
2023-02-08T05:27:54.132Z,-9.98
2023-02-08T05:30:56.146Z,-9.97
2023-02-08T05:33:58.180Z,-9.95
2023-02-08T05:37:00.050Z,-9.93
2023-02-08T05:40:03.118Z,-9.89
2023-02-08T05:43:06.104Z,-9.84
2023-02-08T05:46:08.075Z,-9.80
2023-02-08T05:49:11.331Z,-9.78
2023-02-08T05:52:14.087Z,-9.82
2023-02-08T05:55:17.282Z,-9.82
2023-02-08T05:58:20.112Z,-9.77
2023-02-08T06:01:27.225Z,-9.72
2023-02-08T06:04:30.124Z,-9.68
2023-02-08T06:07:32.125Z,-9.61
2023-02-08T06:10:34.168Z,-9.56
2023-02-08T06:13:36.229Z,-9.50
2023-02-08T06:16:39.178Z,-9.40
2023-02-08T06:19:43.165Z,-9.29
2023-02-08T06:22:52.146Z,-9.23
2023-02-08T06:25:49.201Z,-8.87
2023-02-08T06:29:13.245Z,-7.49
2023-02-08T06:32:18.050Z,-5.97
2023-02-08T06:35:23.393Z,-4.65
2023-02-08T06:38:27.215Z,-3.61
2023-02-08T06:41:32.295Z,-2.88
2023-02-08T06:44:34.452Z,-2.29
2023-02-08T06:47:42.465Z,-1.81
2023-02-08T06:50:45.172Z,-1.20
2023-02-08T06:53:47.755Z,-0.75
2023-02-08T06:56:49.252Z,-0.51
2023-02-08T06:59:51.380Z,-0.30
2023-02-08T10:24:14.978Z,9.55
2023-02-08T10:27:25.018Z,9.35
2023-02-08T10:30:36.520Z,9.37
2023-02-08T10:34:08.669Z,9.25
2023-02-08T10:37:10.032Z,9.10
2023-02-08T10:40:13.120Z,9.22
2023-02-08T10:43:37.104Z,9.35
2023-02-08T10:46:51.080Z,9.53
2023-02-08T10:50:02.669Z,9.67
2023-02-08T10:53:04.094Z,9.96
2023-02-08T10:56:04.077Z,10.01
2023-02-08T10:59:08.092Z,9.67
2023-02-08T11:02:09.063Z,9.37
2023-02-08T11:05:12.153Z,9.18
2023-02-08T11:08:26.219Z,9.01
2023-02-08T11:11:26.559Z,8.98
2023-02-08T11:14:45.471Z,9.13
2023-02-08T11:17:49.104Z,9.31
2023-02-08T11:20:52.143Z,9.30
2023-02-08T11:23:58.700Z,9.04
2023-02-08T11:27:00.167Z,9.01
2023-02-08T11:30:02.132Z,9.08
2023-02-08T11:33:22.173Z,9.13
2023-02-08T11:36:29.057Z,9.01
2023-02-08T11:39:35.180Z,9.06
2023-02-08T11:42:38.194Z,9.14
2023-02-08T11:45:42.558Z,9.00
2023-02-08T11:48:57.245Z,8.86
2023-02-08T11:51:59.150Z,8.94
2023-02-08T11:55:01.354Z,8.88
2023-02-08T11:58:15.169Z,8.81
2023-02-08T12:01:30.238Z,8.68
2023-02-08T12:04:31.296Z,8.69
2023-02-08T12:07:44.175Z,8.58
2023-02-08T12:10:56.216Z,8.46
2023-02-08T12:14:03.195Z,8.48
2023-02-08T12:17:06.226Z,8.44
2023-02-08T12:20:22.186Z,8.37
2023-02-08T12:23:32.233Z,8.40
2023-02-08T12:26:41.179Z,8.51
2023-02-08T12:29:57.260Z,8.41
2023-02-08T12:33:19.344Z,8.20
2023-02-08T12:36:30.463Z,8.07
2023-02-08T12:40:02.432Z,8.08
2023-02-08T12:43:02.529Z,8.02
2023-02-08T12:46:39.318Z,7.91
2023-02-08T12:50:02.423Z,7.88
2023-02-08T12:53:09.291Z,7.82
2023-02-08T12:56:22.318Z,7.54
2023-02-08T12:59:38.331Z,7.16
2023-02-08T13:02:52.301Z,7.10
2023-02-08T13:06:02.141Z,6.86
2023-02-08T13:09:59.318Z,6.90
2023-02-08T13:13:03.294Z,6.77
2023-02-08T13:16:16.453Z,6.34
2023-02-08T13:20:00.643Z,6.22
2023-02-08T13:23:02.433Z,6.14
2023-02-08T13:26:05.316Z,5.94
2023-02-08T13:29:11.462Z,5.80
2023-02-08T13:32:15.295Z,5.61
2023-02-08T13:35:33.365Z,5.41
2023-02-08T13:38:43.328Z,4.99
2023-02-08T13:41:45.321Z,4.74
2023-02-08T13:44:51.364Z,4.64
2023-02-08T13:48:01.731Z,4.59
2023-02-08T13:51:07.371Z,4.34
2023-02-08T13:54:09.248Z,4.11
2023-02-08T13:57:13.479Z,3.86
2023-02-08T14:00:49.516Z,3.60
2023-02-08T14:03:53.545Z,3.44
2023-02-08T14:07:06.644Z,3.11
2023-02-08T14:10:21.621Z,2.80
2023-02-08T14:13:52.523Z,2.49
2023-02-08T14:16:57.391Z,2.10
2023-02-08T14:19:59.823Z,1.81
2023-02-08T14:23:15.268Z,1.54
2023-02-08T14:26:21.427Z,1.20
2023-02-08T14:29:39.054Z,0.94
2023-02-08T14:32:44.620Z,0.62
2023-02-08T14:35:47.792Z,0.18
2023-02-08T14:39:39.442Z,-0.16
2023-02-08T14:43:08.461Z,-0.43
2023-02-08T14:46:51.764Z,-0.73
2023-02-08T14:49:53.567Z,-1.07
2023-02-08T14:53:02.685Z,-1.34
2023-02-08T14:56:16.853Z,-1.64
2023-02-08T14:59:28.525Z,-1.90
2023-02-08T15:02:37.504Z,-2.15
2023-02-08T15:05:44.732Z,-2.36
2023-02-08T15:08:49.308Z,-2.54
2023-02-08T15:11:54.546Z,-2.68
2023-02-08T15:14:56.478Z,-2.86
2023-02-08T15:17:58.534Z,-3.00
2023-02-08T15:20:59.570Z,-3.14
2023-02-08T15:24:14.069Z,-3.23
2023-02-08T15:27:14.598Z,-3.31
2023-02-08T15:30:16.484Z,-3.40
2023-02-08T15:37:31.182Z,-3.65
2023-02-08T15:40:43.964Z,-3.74
2023-02-08T15:43:47.544Z,-3.84
2023-02-08T15:46:49.564Z,-3.95
2023-02-08T15:49:56.584Z,-4.03
2023-02-08T15:52:58.548Z,-4.12
2023-02-08T15:56:08.175Z,-4.21
2023-02-08T15:59:10.633Z,-4.29
2023-02-08T16:02:10.597Z,-4.37
2023-02-08T16:05:12.573Z,-4.45
2023-02-08T19:21:36.946Z,-6.03
2023-02-08T19:24:38.334Z,-5.88
2023-02-08T19:27:39.365Z,-5.84
2023-02-08T19:30:39.391Z,-5.82
2023-02-08T19:33:39.330Z,-5.81
2023-02-08T19:36:41.411Z,-5.80
2023-02-08T19:39:44.503Z,-5.79
2023-02-08T19:42:46.405Z,-5.78
2023-02-08T19:45:50.445Z,-5.79
2023-02-08T19:48:50.347Z,-5.78
2023-02-08T19:51:54.002Z,-5.78
2023-02-08T19:54:55.388Z,-5.79
2023-02-08T19:58:02.918Z,-5.80
2023-02-08T20:01:03.376Z,-5.84
2023-02-08T20:04:05.293Z,-5.87
2023-02-08T20:07:06.394Z,-5.87
2023-02-08T20:10:06.470Z,-5.87
2023-02-08T20:13:07.440Z,-5.89
2023-02-08T20:16:12.543Z,-5.88
2023-02-08T20:19:17.702Z,-5.87
2023-02-08T20:22:18.701Z,-5.84
2023-02-08T20:25:29.636Z,-5.82
2023-02-08T20:28:32.578Z,-5.80
2023-02-08T20:31:38.477Z,-5.78
2023-02-08T20:34:53.996Z,-5.78
2023-02-08T20:38:01.482Z,-5.81
2023-02-08T20:41:02.445Z,-5.84
2023-02-08T20:44:05.482Z,-5.92
2023-02-08T20:47:07.450Z,-6.03
2023-02-08T20:50:18.170Z,-6.13
2023-02-08T20:53:20.602Z,-6.20
2023-02-08T20:56:28.072Z,-6.29
2023-02-08T20:59:31.538Z,-6.39
2023-02-08T21:02:36.709Z,-6.46
2023-02-08T21:05:38.769Z,-6.51
2023-02-08T21:09:04.867Z,-6.55
2023-02-08T21:12:07.585Z,-6.61
2023-02-08T21:15:08.820Z,-6.68
2023-02-08T21:18:13.322Z,-6.70
2023-02-08T21:21:13.535Z,-6.71
2023-02-08T21:24:19.009Z,-6.71
2023-02-08T21:27:24.728Z,-6.69
2023-02-08T21:30:27.679Z,-6.67
2023-02-08T21:33:29.851Z,-6.69
2023-02-08T21:36:34.529Z,-6.71
2023-02-08T21:39:36.543Z,-6.71
2023-02-08T21:42:40.194Z,-6.71
2023-02-08T21:45:43.645Z,-6.73
2023-02-08T21:49:02.545Z,-6.74
2023-02-08T21:52:22.562Z,-6.73
2023-02-08T21:55:29.088Z,-6.74
2023-02-08T21:58:36.149Z,-6.73
2023-02-08T22:01:40.183Z,-6.74
2023-02-08T22:05:08.554Z,-6.76
2023-02-08T22:08:23.865Z,-6.80
2023-02-08T22:14:58.594Z,-6.86
2023-02-08T22:18:11.077Z,-6.84
2023-02-08T22:21:15.907Z,-6.81
2023-02-08T22:24:18.912Z,-6.81
2023-02-08T22:27:18.639Z,-6.82
2023-02-08T22:30:22.831Z,-6.79
2023-02-08T22:33:24.731Z,-6.76
2023-02-08T22:36:24.694Z,-6.74
2023-02-08T22:39:25.650Z,-6.74
2023-02-08T22:42:28.662Z,-6.74
2023-02-08T22:45:29.660Z,-6.77
2023-02-08T22:48:30.040Z,-6.79
2023-02-08T22:51:30.676Z,-6.81
2023-02-08T22:54:32.670Z,-6.84
2023-02-08T22:57:33.690Z,-6.85
2023-02-08T23:00:33.662Z,-6.86
2023-02-08T23:03:33.652Z,-6.87
2023-02-08T23:06:34.749Z,-6.89
2023-02-08T23:09:37.682Z,-6.92
2023-02-08T23:12:40.951Z,-6.94
2023-02-08T23:15:41.744Z,-6.98
2023-02-08T23:18:42.704Z,-6.99
2023-02-08T23:21:42.663Z,-7.01
2023-02-08T23:24:45.957Z,-7.01
2023-02-08T23:27:38.821Z,-7.00
2023-02-08T23:30:38.756Z,-6.99
2023-02-08T23:33:38.711Z,-6.98
2023-02-08T23:36:38.789Z,-6.98
2023-02-08T23:39:38.780Z,-6.97
2023-02-08T23:42:39.723Z,-7.03
2023-02-08T23:45:39.729Z,-7.11
2023-02-08T23:48:39.752Z,-7.13
2023-02-08T23:51:39.793Z,-7.14
2023-02-08T23:54:40.901Z,-7.12
2023-02-08T23:57:48.765Z,-7.12
